Time;durP1;ratioP1;P1;durP2;ratioP2;P2;SDS_P1;SDS_P2;PMS_P1;PMS_P2;Temp;Humidity;BMP_temperature;BMP_pressure;BME280_temperature;BME280_humidity;BME280_pressure;Samples;Min_cycle;Max_cycle;Signal;HPM_P1;HPM_P2
2022/04/19 04:00:27;;;;;;;5.03;3.90;;;6.30;99.90;;;;;;6083558;23;20624;31
2022/04/19 04:02:55;;;;;;;5.30;4.10;;;6.20;99.90;;;;;;4935704;29;20483;-63
2022/04/19 04:05:24;;;;;;;5.13;4.63;;;6.20;99.90;;;;;;4937003;29;20463;-63
2022/04/19 04:07:51;;;;;;;4.83;4.33;;;6.20;99.90;;;;;;4937093;29;20956;-64
2022/04/19 04:10:18;;;;;;;5.73;4.90;;;6.20;99.90;;;;;;4935740;29;20547;-64
2022/04/19 04:12:44;;;;;;;5.13;4.70;;;6.30;99.90;;;;;;4918086;29;20458;-63
2022/04/19 04:15:11;;;;;;;6.20;4.43;;;6.30;99.90;;;;;;4918206;29;20464;-64
2022/04/19 04:17:38;;;;;;;6.30;5.70;;;6.40;99.90;;;;;;4917837;29;20454;-64
2022/04/19 04:20:07;;;;;;;6.50;5.30;;;6.40;99.90;;;;;;4917829;29;20468;-63
2022/04/19 04:22:34;;;;;;;6.03;5.43;;;6.40;99.90;;;;;;4917130;29;20478;-63
2022/04/19 04:25:02;;;;;;;5.80;5.40;;;6.40;99.90;;;;;;4917881;29;20458;-65
2022/04/19 04:27:28;;;;;;;5.70;5.20;;;6.40;99.90;;;;;;4917847;29;20468;-65
2022/04/19 04:29:55;;;;;;;5.53;5.13;;;6.40;99.90;;;;;;4917740;29;20493;-63
2022/04/19 04:32:22;;;;;;;5.67;5.27;;;6.50;99.90;;;;;;4917836;29;20492;-63
2022/04/19 04:34:49;;;;;;;5.23;4.57;;;6.40;99.90;;;;;;4918046;29;20461;-62
2022/04/19 04:37:17;;;;;;;5.73;5.30;;;6.50;99.90;;;;;;4918415;29;20484;-64
2022/04/19 04:39:43;;;;;;;5.90;5.30;;;6.50;99.90;;;;;;4918332;29;20942;-64
2022/04/19 04:42:10;;;;;;;5.63;4.90;;;6.50;99.90;;;;;;4918580;29;20842;-63
2022/04/19 04:44:37;;;;;;;5.97;5.03;;;6.40;99.90;;;;;;4917756;29;20461;-63
2022/04/19 04:49:48;;;;;;;6.30;5.70;;;6.40;99.90;;;;;;4917457;29;20465;-64
2022/04/19 04:52:18;;;;;;;6.87;5.60;;;6.40;99.90;;;;;;4917305;29;21035;-64
2022/04/19 04:54:45;;;;;;;5.40;5.00;;;6.40;99.90;;;;;;4917736;29;20506;-64
2022/04/19 04:57:12;;;;;;;5.93;5.33;;;6.40;99.90;;;;;;4917777;29;20791;-64
2022/04/19 04:59:39;;;;;;;7.50;5.27;;;6.40;99.90;;;;;;4917636;29;20458;-66
2022/04/19 05:02:06;;;;;;;5.93;5.43;;;6.40;99.90;;;;;;4917154;29;20580;-65
2022/04/19 05:04:35;;;;;;;7.37;5.70;;;6.40;99.90;;;;;;4917459;29;20975;-65
2022/04/19 05:07:02;;;;;;;6.40;5.30;;;6.40;99.90;;;;;;4917630;29;20454;-64
2022/04/19 05:09:30;;;;;;;5.13;4.70;;;6.40;99.90;;;;;;4917541;29;20523;-64
2022/04/19 05:11:57;;;;;;;5.17;4.70;;;6.40;99.90;;;;;;4917676;29;20477;-64
2022/04/19 05:14:24;;;;;;;5.97;5.47;;;6.50;99.90;;;;;;4917692;29;20468;-65
2022/04/19 05:16:50;;;;;;;9.17;5.97;;;6.50;99.90;;;;;;4917483;29;20458;-63
2022/04/19 05:19:17;;;;;;;7.73;6.20;;;6.50;99.90;;;;;;4922002;29;20461;-65
2022/04/19 05:21:44;;;;;;;6.00;5.47;;;6.50;99.90;;;;;;4931365;29;20474;-65
2022/04/19 05:24:11;;;;;;;6.90;6.20;;;6.50;99.90;;;;;;4917590;29;20458;-65
2022/04/19 05:26:40;;;;;;;7.23;6.63;;;6.50;99.90;;;;;;4917594;29;20493;-64
2022/04/19 05:29:07;;;;;;;8.53;5.33;;;6.50;99.90;;;;;;4917309;29;20465;-68
2022/04/19 05:31:34;;;;;;;5.20;4.70;;;6.50;99.90;;;;;;4917008;29;20540;-63
2022/04/19 05:34:00;;;;;;;6.30;5.80;;;6.50;99.90;;;;;;4919271;29;20465;-64
2022/04/19 05:36:27;;;;;;;6.10;5.47;;;6.70;99.90;;;;;;4920961;29;20809;-65
2022/04/19 05:38:54;;;;;;;8.90;5.50;;;6.80;99.90;;;;;;4920547;29;20468;-64
2022/04/19 05:41:21;;;;;;;6.03;5.33;;;7.00;99.90;;;;;;4920635;29;20494;-63
2022/04/19 05:43:50;;;;;;;5.83;5.33;;;7.20;99.90;;;;;;4920760;29;20500;-64
2022/04/19 05:46:18;;;;;;;5.77;4.80;;;7.60;99.90;;;;;;4920772;29;20551;-64
2022/04/19 05:48:44;;;;;;;7.03;5.40;;;8.00;99.90;;;;;;4920340;29;20886;-64
2022/04/19 05:51:11;;;;;;;5.23;4.73;;;8.40;99.90;;;;;;4920529;29;20540;-64
2022/04/19 05:53:38;;;;;;;6.80;4.77;;;8.80;99.90;;;;;;4920765;29;20473;-64
2022/04/19 05:56:05;;;;;;;5.80;5.20;;;9.20;99.90;;;;;;4921297;29;20469;-65
2022/04/19 05:58:32;;;;;;;7.47;4.80;;;9.60;99.90;;;;;;4920986;29;20489;-64
2022/04/19 06:01:01;;;;;;;5.93;4.33;;;9.90;99.90;;;;;;4920448;29;20490;-64
2022/04/19 06:06:14;;;;;;;8.30;4.53;;;10.70;99.90;;;;;;4927224;29;20551;-65
2022/04/19 06:08:41;;;;;;;14.23;4.80;;;11.30;99.90;;;;;;4923508;29;20458;-65
2022/04/19 06:11:11;;;;;;;6.57;4.43;;;11.70;99.90;;;;;;4920129;29;20485;-64
2022/04/19 06:13:38;;;;;;;6.20;4.33;;;12.00;98.00;;;;;;4920427;29;20873;-64
2022/04/19 06:16:06;;;;;;;7.00;4.77;;;12.40;97.60;;;;;;4919882;29;20458;-64
2022/04/19 06:18:33;;;;;;;10.00;5.53;;;12.70;94.90;;;;;;4920055;29;20534;-64
2022/04/19 06:21:00;;;;;;;5.63;4.77;;;12.80;94.90;;;;;;4920196;29;20477;-64
2022/04/19 06:23:27;;;;;;;11.23;5.07;;;13.00;94.10;;;;;;4920255;29;20462;-65
2022/04/19 06:25:54;;;;;;;5.67;4.67;;;13.40;93.80;;;;;;4919785;29;20465;-65
2022/04/19 06:28:21;;;;;;;6.57;5.20;;;13.80;92.90;;;;;;4919919;29;20548;-65
2022/04/19 06:30:48;;;;;;;9.23;5.20;;;14.20;92.00;;;;;;4919474;29;20492;-65
2022/04/19 06:33:16;;;;;;;6.67;5.17;;;14.70;91.30;;;;;;4919361;29;20461;-65
2022/04/19 06:35:43;;;;;;;8.93;5.57;;;14.80;89.10;;;;;;4919444;29;20461;-64
2022/04/19 06:38:09;;;;;;;5.33;4.77;;;14.80;88.90;;;;;;4919396;29;20517;-65
2022/04/19 06:40:36;;;;;;;6.37;4.80;;;14.90;87.30;;;;;;4919434;29;20560;-64
2022/04/19 06:43:04;;;;;;;5.73;5.20;;;15.20;87.10;;;;;;4919368;29;20565;-64
2022/04/19 06:45:31;;;;;;;5.50;5.10;;;15.40;82.30;;;;;;4918553;29;20453;-64
2022/04/19 06:47:59;;;;;;;6.13;4.83;;;15.60;81.60;;;;;;4919392;29;20458;-64
2022/04/19 06:50:27;;;;;;;5.23;4.77;;;15.70;81.10;;;;;;4919548;29;20572;-65
2022/04/19 06:52:53;;;;;;;6.17;5.27;;;15.70;80.20;;;;;;4919360;29;20461;-64
2022/04/19 06:55:21;;;;;;;5.10;4.80;;;15.60;80.70;;;;;;4919137;29;20469;-64
2022/04/19 06:57:47;;;;;;;5.40;4.80;;;15.60;80.80;;;;;;4919537;29;20462;-65
2022/04/19 07:00:15;;;;;;;7.60;4.70;;;15.70;81.40;;;;;;4919244;29;20454;-65
2022/04/19 07:02:42;;;;;;;6.30;5.80;;;16.00;80.20;;;;;;4919072;29;20449;-64
2022/04/19 07:05:10;;;;;;;8.83;5.63;;;16.30;81.40;;;;;;4918947;29;20457;-65
2022/04/19 07:07:39;;;;;;;8.97;4.90;;;16.80;78.20;;;;;;4919324;29;20454;-64
2022/04/19 07:10:07;;;;;;;5.10;4.70;;;17.40;76.00;;;;;;4920767;29;20524;-64
2022/04/19 07:12:34;;;;;;;5.43;4.97;;;17.30;74.40;;;;;;4922153;29;20484;-65
2022/04/19 07:15:00;;;;;;;6.50;5.90;;;18.00;74.40;;;;;;4918913;29;20993;-64
2022/04/19 07:17:27;;;;;;;6.40;5.90;;;18.30;74.00;;;;;;4918449;29;20874;-64
2022/04/19 07:28:18;;;;;;;5.60;5.20;;;18.50;67.60;;;;;;4882142;29;20490;-64
2022/04/19 07:30:45;;;;;;;5.83;5.27;;;18.30;67.90;;;;;;4918451;29;20493;-64
2022/04/19 07:33:12;;;;;;;7.03;5.70;;;18.70;66.60;;;;;;4918332;29;20457;-64
2022/04/19 07:35:38;;;;;;;9.00;5.50;;;19.10;64.80;;;;;;4918316;29;20457;-64
2022/04/19 07:38:06;;;;;;;5.83;5.37;;;19.30;64.70;;;;;;4917967;29;20468;-64
2022/04/19 07:40:35;;;;;;;6.17;5.67;;;19.80;63.80;;;;;;4918128;29;20473;-64
2022/04/19 07:43:02;;;;;;;6.13;5.53;;;20.10;61.90;;;;;;4918326;29;20559;-64
2022/04/19 07:45:29;;;;;;;6.57;5.90;;;20.10;62.40;;;;;;4918349;29;20464;-64
2022/04/19 07:47:56;;;;;;;7.13;5.83;;;19.80;60.50;;;;;;4918442;29;20453;-64
2022/04/19 07:50:23;;;;;;;5.87;5.37;;;19.40;61.60;;;;;;4918242;29;20478;-63
2022/04/19 07:52:50;;;;;;;6.10;5.50;;;19.70;61.40;;;;;;4918106;29;20484;-64
2022/04/19 07:55:18;;;;;;;6.70;5.63;;;19.50;64.60;;;;;;4918745;29;20871;-64
2022/04/19 07:57:45;;;;;;;6.70;5.00;;;20.00;64.80;;;;;;4919454;29;20465;-63
2022/04/19 08:00:13;;;;;;;6.10;5.60;;;20.60;63.60;;;;;;4919446;29;20460;-63
2022/04/19 08:02:40;;;;;;;6.30;5.70;;;21.10;62.20;;;;;;4919199;29;20513;-63
2022/04/19 08:05:08;;;;;;;8.30;5.90;;;21.50;59.10;;;;;;4918970;29;20464;-63
2022/04/19 08:07:35;;;;;;;6.17;5.60;;;21.50;59.70;;;;;;4919392;29;20488;-63
2022/04/19 08:10:03;;;;;;;5.90;5.40;;;21.60;59.30;;;;;;4919289;29;20485;-63
2022/04/19 08:12:31;;;;;;;7.70;4.87;;;22.30;61.20;;;;;;4919243;29;20538;-63
2022/04/19 08:14:58;;;;;;;5.97;5.57;;;23.10;58.90;;;;;;4919059;29;20494;-63
2022/04/19 08:17:25;;;;;;;6.43;5.63;;;24.00;56.20;;;;;;4918900;29;20454;-63
2022/04/19 08:19:52;;;;;;;5.73;5.23;;;24.20;57.30;;;;;;4919064;29;20504;-63
2022/04/19 08:22:18;;;;;;;7.10;5.50;;;24.70;55.50;;;;;;4919126;29;20481;-63
2022/04/19 08:24:45;;;;;;;8.23;5.63;;;24.90;57.90;;;;;;4918918;29;20460;-63
2022/04/19 08:27:15;;;;;;;7.40;5.77;;;24.80;53.10;;;;;;4919152;29;20535;-64
2022/04/19 08:29:44;;;;;;;7.70;5.17;;;24.10;52.20;;;;;;4918695;29;20457;-63
2022/04/19 08:32:10;;;;;;;5.40;4.87;;;24.40;54.50;;;;;;4917699;29;20490;-63
2022/04/19 08:34:37;;;;;;;7.33;5.23;;;24.70;54.20;;;;;;4917903;29;20457;-63
2022/04/19 08:37:05;;;;;;;5.43;5.03;;;25.00;53.00;;;;;;4919823;29;20457;-64
2022/04/19 08:39:31;;;;;;;6.33;5.73;;;25.10;53.30;;;;;;4926760;29;20521;-64
2022/04/19 08:41:59;;;;;;;7.40;4.73;;;25.70;50.40;;;;;;4927090;29;20469;-64
2022/04/19 08:44:26;;;;;;;5.13;4.37;;;25.80;50.30;;;;;;4921100;29;20461;-64
2022/04/19 08:46:56;;;;;;;9.33;5.70;;;25.90;48.00;;;;;;4917767;29;21004;-64
2022/04/19 08:49:24;;;;;;;5.40;4.90;;;25.80;48.00;;;;;;4918455;29;20532;-64
2022/04/19 08:51:51;;;;;;;5.67;5.17;;;25.30;47.30;;;;;;4917954;29;20491;-64
2022/04/19 08:59:46;;;;;;;5.10;4.70;;;24.60;46.90;;;;;;4918535;29;20440;-64
2022/04/19 09:02:23;;;;;;;5.20;4.73;;;24.40;49.70;;;;;;4918077;29;20477;-64
2022/04/19 09:04:50;;;;;;;4.50;4.10;;;24.30;49.10;;;;;;4917520;29;20916;-64
2022/04/19 09:07:17;;;;;;;5.03;4.57;;;24.80;48.10;;;;;;4917997;29;20489;-64
2022/04/19 09:09:57;;;;;;;5.30;4.23;;;24.60;48.30;;;;;;4920396;29;20461;-64
2022/04/19 09:12:24;;;;;;;9.03;5.70;;;24.80;47.70;;;;;;4921616;29;20477;-64
2022/04/19 09:14:56;;;;;;;5.50;4.30;;;24.80;47.90;;;;;;4920941;29;20437;-64
2022/04/19 09:17:32;;;;;;;5.10;4.60;;;25.20;47.00;;;;;;4921017;29;20446;-64
2022/04/19 09:20:09;;;;;;;5.97;3.80;;;25.70;44.60;;;;;;4920804;29;20447;-64
2022/04/19 09:22:37;;;;;;;4.73;4.33;;;25.60;44.20;;;;;;4923511;29;20476;-64
2022/04/19 09:25:15;;;;;;;4.67;4.27;;;25.60;44.40;;;;;;4921516;29;20459;-64
2022/04/19 09:27:41;;;;;;;5.30;4.60;;;25.80;45.80;;;;;;4921024;29;20477;-64
2022/04/19 09:30:19;;;;;;;5.73;5.10;;;26.20;44.30;;;;;;4921089;29;20513;-64
2022/04/19 09:33:08;;;;;;;5.87;5.37;;;26.10;43.70;;;;;;4920684;29;20500;-64
2022/04/19 09:35:37;;;;;;;4.90;4.43;;;26.10;45.20;;;;;;4920564;29;20444;-64
2022/04/19 09:38:04;;;;;;;5.40;4.90;;;26.50;45.90;;;;;;4920418;29;20457;-64
2022/04/19 09:40:33;;;;;;;5.17;4.67;;;27.10;44.90;;;;;;4920336;29;20476;-64
2022/04/19 09:43:10;;;;;;;5.40;4.90;;;27.70;44.50;;;;;;4920293;29;20460;-64
2022/04/19 09:45:51;;;;;;;4.80;4.30;;;27.40;41.90;;;;;;4920467;29;20441;-65
2022/04/19 09:48:20;;;;;;;4.30;4.00;;;27.90;42.40;;;;;;4920318;29;20850;-64
2022/04/19 09:50:52;;;;;;;4.67;4.00;;;28.30;40.30;;;;;;4920046;29;20955;-64
2022/04/19 09:53:20;;;;;;;4.80;4.50;;;27.80;40.60;;;;;;4920209;29;20816;-64
2022/04/19 09:55:48;;;;;;;4.87;4.20;;;27.30;40.60;;;;;;4919944;29;21005;-64
2022/04/19 09:58:16;;;;;;;4.73;4.07;;;27.30;42.30;;;;;;4924955;29;20465;-64
2022/04/19 10:00:44;;;;;;;4.33;3.93;;;27.40;40.90;;;;;;4927047;29;20985;-65
2022/04/19 10:09:01;;;;;;;4.40;3.90;;;28.40;39.10;;;;;;4920177;29;20432;-65
2022/04/19 10:11:29;;;;;;;4.20;3.87;;;27.70;39.50;;;;;;4919938;29;20485;-64
2022/04/19 10:13:56;;;;;;;6.93;4.20;;;27.70;40.50;;;;;;4919666;29;20461;-64
2022/04/19 10:16:24;;;;;;;4.33;3.93;;;27.30;39.40;;;;;;4920029;29;20461;-64
2022/04/19 10:18:51;;;;;;;4.97;4.43;;;27.40;40.50;;;;;;4919644;29;20502;-63
2022/04/19 10:21:20;;;;;;;4.50;4.20;;;26.90;40.10;;;;;;4918413;29;20477;-63
2022/04/19 10:23:47;;;;;;;4.67;4.27;;;26.60;44.00;;;;;;4919525;29;20463;-63
2022/04/19 10:26:22;;;;;;;4.70;4.40;;;26.60;41.80;;;;;;4919527;29;20463;-63
2022/04/19 10:28:50;;;;;;;5.10;4.70;;;27.00;43.60;;;;;;4919497;29;20468;-63
2022/04/19 10:31:26;;;;;;;5.83;5.23;;;27.40;41.40;;;;;;4919667;29;20496;-63
2022/04/19 10:33:53;;;;;;;5.47;4.97;;;28.10;40.90;;;;;;4919949;29;20450;-62
2022/04/19 10:36:24;;;;;;;8.90;5.17;;;28.20;39.30;;;;;;4919809;29;20462;-69
2022/04/19 10:39:24;;;;;;;5.00;4.60;;;27.60;39.50;;;;;;4920046;29;20457;-67
2022/04/19 10:41:56;;;;;;;5.03;4.67;;;27.40;43.00;;;;;;4915637;29;20556;-69
2022/04/19 10:44:25;;;;;;;5.50;4.70;;;28.10;39.60;;;;;;4920239;29;20453;-68
2022/04/19 10:47:15;;;;;;;5.30;4.90;;;27.80;38.30;;;;;;4919449;29;20453;-68
2022/04/19 10:50:03;;;;;;;5.30;4.90;;;27.90;38.80;;;;;;4919387;29;20488;-65
2022/04/19 10:52:50;;;;;;;5.70;5.20;;;28.20;37.00;;;;;;4919185;29;20485;-64
2022/04/19 10:55:25;;;;;;;6.40;4.70;;;27.90;37.80;;;;;;4918865;29;20464;-64
2022/04/19 10:58:16;;;;;;;5.90;5.50;;;27.50;40.00;;;;;;4919582;29;20496;-64
2022/04/19 11:00:48;;;;;;;8.27;5.87;;;27.80;38.10;;;;;;4918646;29;20485;-64
2022/04/19 11:03:17;;;;;;;5.10;4.70;;;27.90;38.50;;;;;;4918598;29;20918;-64
2022/04/19 11:05:45;;;;;;;6.00;5.50;;;27.40;39.00;;;;;;4919588;29;20457;-64
2022/04/19 11:08:37;;;;;;;7.10;6.40;;;27.50;38.10;;;;;;4919046;29;20469;-64
2022/04/19 11:11:23;;;;;;;5.30;4.90;;;27.00;39.60;;;;;;4918702;29;20908;-64
2022/04/19 11:14:22;;;;;;;6.40;5.90;;;26.70;39.60;;;;;;4918398;29;20906;-64
2022/04/19 11:16:51;;;;;;;6.03;4.80;;;25.70;40.30;;;;;;4918668;29;20449;-64
2022/04/19 11:19:20;;;;;;;5.80;5.20;;;25.40;40.60;;;;;;4918627;29;20504;-64
2022/04/19 11:21:54;;;;;;;5.93;5.30;;;24.70;39.70;;;;;;4918213;29;21057;-64
2022/04/19 11:24:58;;;;;;;5.63;5.13;;;24.30;41.60;;;;;;4918531;29;20497;-64
2022/04/19 11:28:05;;;;;;;4.93;4.53;;;24.30;42.60;;;;;;4918383;29;20464;-64
2022/04/19 11:30:32;;;;;;;5.10;4.70;;;24.30;39.80;;;;;;4918941;29;20457;-64
2022/04/19 11:32:59;;;;;;;5.93;5.53;;;24.40;43.60;;;;;;4930626;29;20489;-64
2022/04/19 11:35:29;;;;;;;8.83;5.10;;;24.30;43.60;;;;;;4924302;29;20457;-63
2022/04/19 11:37:55;;;;;;;6.80;5.87;;;24.10;42.10;;;;;;4920931;29;20468;-64
2022/04/19 11:48:45;;;;;;;7.53;6.30;;;23.40;44.70;;;;;;4917734;29;20425;-63
2022/04/19 11:51:13;;;;;;;9.50;7.87;;;23.20;44.10;;;;;;4917861;29;20548;-64
2022/04/19 11:53:40;;;;;;;5.87;5.37;;;23.10;44.00;;;;;;4917866;29;20468;-64
2022/04/19 11:56:08;;;;;;;6.60;5.37;;;23.00;44.30;;;;;;4917776;29;20454;-64
2022/04/19 11:58:37;;;;;;;5.30;4.90;;;22.90;43.90;;;;;;4917780;29;20516;-64
2022/04/19 12:01:05;;;;;;;6.17;5.57;;;22.80;44.90;;;;;;4917544;29;20913;-64
2022/04/19 12:03:36;;;;;;;5.30;4.80;;;22.70;44.90;;;;;;4917738;29;20458;-64
2022/04/19 12:06:07;;;;;;;5.60;5.10;;;22.80;43.50;;;;;;4917711;29;20485;-64
2022/04/19 12:08:37;;;;;;;5.30;4.90;;;22.30;43.80;;;;;;4917582;29;20461;-64
2022/04/19 12:11:06;;;;;;;7.90;6.27;;;22.30;45.50;;;;;;4917816;29;20492;-64
2022/04/19 12:13:34;;;;;;;6.87;6.30;;;22.60;49.10;;;;;;4917837;29;20470;-63
2022/04/19 12:16:03;;;;;;;6.17;5.60;;;22.90;47.30;;;;;;4918064;29;20461;-64
2022/04/19 12:18:34;;;;;;;5.80;5.30;;;22.80;44.50;;;;;;4917974;29;20950;-64
2022/04/19 12:21:02;;;;;;;5.23;4.83;;;22.90;48.80;;;;;;4917833;29;20504;-64
2022/04/19 12:23:29;;;;;;;6.00;5.40;;;23.10;46.70;;;;;;4918029;29;20468;-64
2022/04/19 12:26:01;;;;;;;6.90;5.50;;;23.10;49.30;;;;;;4917718;29;20464;-64
2022/04/19 12:28:43;;;;;;;8.17;5.93;;;23.00;47.50;;;;;;4917420;29;20473;-65
2022/04/19 12:31:31;;;;;;;5.50;5.00;;;22.80;46.90;;;;;;4917430;29;20897;-64
2022/04/19 12:33:58;;;;;;;4.93;4.53;;;22.80;46.40;;;;;;4917823;29;20786;-64
2022/04/19 12:36:26;;;;;;;6.30;5.80;;;22.80;54.40;;;;;;4917365;29;20468;-64
2022/04/19 12:39:01;;;;;;;6.60;6.00;;;23.10;51.80;;;;;;4917698;29;20461;-64
2022/04/19 12:41:39;;;;;;;6.80;5.80;;;23.20;46.10;;;;;;4917857;29;20528;-64
2022/04/19 12:44:08;;;;;;;5.83;5.37;;;23.10;45.70;;;;;;4919553;29;20484;-63
2022/04/19 12:46:41;;;;;;;5.20;4.80;;;22.70;44.60;;;;;;4921110;29;20468;-65
2022/04/19 12:49:18;;;;;;;7.33;5.80;;;22.60;47.80;;;;;;4921154;29;20487;-68
2022/04/19 12:51:58;;;;;;;9.87;6.70;;;22.80;47.00;;;;;;4921751;29;20489;-68
2022/04/19 12:54:26;;;;;;;7.33;6.63;;;23.00;46.90;;;;;;4921116;29;20805;-68
2022/04/19 12:57:35;;;;;;;7.47;6.60;;;23.00;45.60;;;;;;4921038;29;20493;-64
2022/04/19 13:00:02;;;;;;;6.93;5.70;;;23.00;44.10;;;;;;4921217;29;20449;-64
2022/04/19 13:02:31;;;;;;;6.60;5.30;;;23.00;42.80;;;;;;4920455;29;20492;-63
2022/04/19 13:04:58;;;;;;;6.20;5.70;;;23.20;44.70;;;;;;4921053;29;20461;-63
2022/04/19 13:12:59;;;;;;;6.47;5.87;;;22.90;47.70;;;;;;4921062;29;20462;-66
2022/04/19 13:15:26;;;;;;;5.23;4.83;;;23.00;46.00;;;;;;4920629;29;20532;-67
2022/04/19 13:17:54;;;;;;;7.33;5.50;;;23.20;45.70;;;;;;4920479;29;20466;-66
2022/04/19 13:20:21;;;;;;;5.37;4.83;;;23.20;44.10;;;;;;4920847;29;20461;-66
2022/04/19 13:22:47;;;;;;;6.90;5.07;;;23.30;51.10;;;;;;4920945;29;20457;-66
2022/04/19 13:25:15;;;;;;;6.10;5.60;;;23.60;48.30;;;;;;4920528;29;20953;-66
2022/04/19 13:27:42;;;;;;;6.10;5.40;;;23.70;47.40;;;;;;4920740;29;20465;-66
2022/04/19 13:30:10;;;;;;;7.70;4.83;;;23.50;46.00;;;;;;4921032;29;20464;-66
2022/04/19 13:32:38;;;;;;;5.87;5.37;;;23.10;47.60;;;;;;4920366;29;20569;-66
2022/04/19 13:35:07;;;;;;;6.70;6.20;;;22.90;47.50;;;;;;4921085;29;20464;-66
2022/04/19 13:40:20;;;;;;;6.00;5.33;;;22.80;49.00;;;;;;4920105;29;20960;-66
2022/04/19 13:42:47;;;;;;;6.17;5.67;;;22.80;47.30;;;;;;4920570;29;20813;-66
2022/04/19 13:45:13;;;;;;;5.83;5.33;;;22.60;48.00;;;;;;4920462;29;20461;-66
2022/04/19 13:47:40;;;;;;;6.30;5.80;;;22.60;47.40;;;;;;4920383;29;20457;-65
2022/04/19 13:50:09;;;;;;;4.73;4.23;;;22.60;48.30;;;;;;4920681;29;20461;-64
2022/04/19 13:52:36;;;;;;;6.67;3.90;;;22.70;50.60;;;;;;4920452;29;20863;-65
2022/04/19 13:55:03;;;;;;;7.03;4.33;;;22.80;50.90;;;;;;4919670;29;20462;-65
2022/04/19 13:57:30;;;;;;;4.53;4.10;;;23.00;48.80;;;;;;4919827;29;20457;-66
2022/04/19 13:59:57;;;;;;;7.97;4.67;;;23.10;49.80;;;;;;4920203;29;20484;-66
2022/04/19 14:02:24;;;;;;;4.73;4.20;;;22.90;46.70;;;;;;4919948;29;21011;-65
2022/04/19 14:04:51;;;;;;;4.83;4.43;;;22.80;46.20;;;;;;4919672;29;20465;-67
2022/04/19 14:07:19;;;;;;;4.20;3.80;;;22.50;45.70;;;;;;4920070;29;20468;-68
2022/04/19 14:09:46;;;;;;;6.17;4.23;;;22.50;51.00;;;;;;4919981;29;20458;-65
2022/04/19 14:12:12;;;;;;;9.33;4.70;;;22.60;48.80;;;;;;4919894;29;20493;-66
2022/04/19 14:14:39;;;;;;;5.37;4.87;;;22.60;48.60;;;;;;4919973;29;20532;-65
2022/04/19 14:17:06;;;;;;;5.80;4.40;;;22.60;49.70;;;;;;4920396;29;20682;-67
2022/04/19 14:19:34;;;;;;;4.00;3.80;;;22.70;49.20;;;;;;4919571;29;20509;-67
2022/04/19 14:22:00;;;;;;;7.80;4.47;;;22.90;48.80;;;;;;4920040;29;20516;-68
2022/04/19 14:24:29;;;;;;;5.60;4.50;;;23.00;47.80;;;;;;4919802;29;20948;-68
2022/04/19 14:26:56;;;;;;;4.50;4.10;;;23.20;46.30;;;;;;4922347;29;20470;-68
2022/04/19 14:34:53;;;;;;;3.63;3.40;;;22.60;48.10;;;;;;4919297;29;20424;-68
2022/04/19 14:37:20;;;;;;;5.03;3.70;;;22.70;46.80;;;;;;4919531;29;20469;-68
2022/04/19 14:39:48;;;;;;;7.43;3.23;;;22.80;45.50;;;;;;4919362;29;20548;-68
2022/04/19 14:42:15;;;;;;;3.50;3.20;;;22.90;47.50;;;;;;4919228;29;20484;-65
2022/04/19 14:44:42;;;;;;;7.43;3.57;;;22.70;44.10;;;;;;4919112;29;20472;-65
2022/04/19 14:47:08;;;;;;;3.53;3.23;;;22.60;45.60;;;;;;4919400;29;20461;-65
2022/04/19 14:49:35;;;;;;;3.47;3.10;;;22.50;43.90;;;;;;4919290;29;20458;-65
2022/04/19 14:52:18;;;;;;;3.50;3.20;;;22.40;45.50;;;;;;4919215;29;20492;-65
2022/04/19 14:54:45;;;;;;;3.70;3.40;;;22.30;43.40;;;;;;4919164;29;20532;-66
2022/04/19 14:57:14;;;;;;;4.20;3.87;;;22.00;44.00;;;;;;4926007;29;20461;-65
2022/04/19 14:59:41;;;;;;;3.10;2.90;;;22.10;46.60;;;;;;4927448;29;20464;-65
2022/04/19 15:02:09;;;;;;;5.90;3.77;;;22.20;46.30;;;;;;4920126;29;20485;-65
2022/04/19 15:04:37;;;;;;;3.80;3.60;;;22.10;46.10;;;;;;4919152;29;20521;-65
2022/04/19 15:07:04;;;;;;;3.60;3.40;;;22.20;45.50;;;;;;4918296;29;20468;-65
2022/04/19 15:09:31;;;;;;;6.30;4.70;;;22.10;46.20;;;;;;4919184;29;20488;-65
2022/04/19 15:11:58;;;;;;;3.93;3.63;;;21.90;45.20;;;;;;4918822;29;20485;-65
2022/04/19 15:14:28;;;;;;;4.03;3.63;;;21.70;45.30;;;;;;4923918;29;20468;-65
2022/04/19 15:16:55;;;;;;;4.47;4.07;;;21.70;45.60;;;;;;4920946;29;20446;-65
2022/04/19 15:19:22;;;;;;;5.20;4.17;;;21.60;45.00;;;;;;4924079;29;20548;-65
2022/04/19 15:21:48;;;;;;;4.20;3.83;;;21.60;46.20;;;;;;4921218;29;20840;-66
2022/04/19 15:24:15;;;;;;;3.57;3.37;;;21.70;47.30;;;;;;4923004;29;20842;-65
2022/04/19 15:26:45;;;;;;;3.00;2.80;;;21.80;45.20;;;;;;4919978;29;20813;-65
2022/04/19 15:29:12;;;;;;;3.77;3.43;;;21.90;45.70;;;;;;4919304;29;20857;-65
2022/04/19 15:31:40;;;;;;;2.93;2.73;;;21.80;44.10;;;;;;4918439;29;20505;-65
2022/04/19 15:34:07;;;;;;;3.80;3.60;;;21.60;45.20;;;;;;4918826;29;20486;-65
2022/04/19 15:36:34;;;;;;;4.40;3.30;;;21.40;44.00;;;;;;4918375;29;20468;-65
2022/04/19 15:39:01;;;;;;;3.33;3.13;;;21.20;44.80;;;;;;4918469;29;20464;-65
2022/04/19 15:41:28;;;;;;;3.60;3.30;;;21.20;46.20;;;;;;4919466;29;20489;-64
2022/04/19 15:43:54;;;;;;;3.10;2.90;;;21.10;45.60;;;;;;4919545;29;20454;-65
2022/04/19 15:46:21;;;;;;;8.67;3.40;;;21.20;46.20;;;;;;4919876;29;20467;-65
2022/04/19 15:48:49;;;;;;;4.33;3.10;;;21.20;44.90;;;;;;4919492;29;20821;-65
2022/04/19 15:51:18;;;;;;;5.77;2.87;;;21.30;45.00;;;;;;4919537;29;20516;-65
2022/04/19 15:53:45;;;;;;;3.53;3.20;;;21.30;45.60;;;;;;4919238;29;21051;-65
2022/04/19 15:56:12;;;;;;;3.90;3.00;;;21.30;45.70;;;;;;4918472;29;20461;-65
2022/04/19 15:58:38;;;;;;;3.90;3.03;;;21.40;44.70;;;;;;4917867;29;20493;-65
2022/04/19 16:01:06;;;;;;;4.20;3.20;;;21.40;45.00;;;;;;4917595;29;20497;-65
2022/04/19 16:03:33;;;;;;;3.20;3.00;;;21.30;43.80;;;;;;4917650;29;20453;-65
2022/04/19 16:06:01;;;;;;;3.43;2.97;;;21.30;45.30;;;;;;4917958;29;20461;-65
2022/04/19 16:08:28;;;;;;;3.47;3.27;;;21.00;43.80;;;;;;4918118;29;20504;-65
2022/04/19 16:10:54;;;;;;;3.03;2.80;;;20.90;44.40;;;;;;4918049;29;20488;-65
2022/04/19 16:13:21;;;;;;;2.90;2.70;;;20.60;44.50;;;;;;4917561;29;20992;-65
2022/04/19 16:15:48;;;;;;;3.30;3.10;;;20.40;44.90;;;;;;4917484;29;20468;-64
2022/04/19 16:23:45;;;;;;;5.60;2.97;;;20.20;46.30;;;;;;4917888;29;20437;-64
2022/04/19 16:26:12;;;;;;;3.20;3.00;;;20.20;46.90;;;;;;4917603;29;20461;-64
2022/04/19 16:28:41;;;;;;;3.03;2.83;;;20.20;45.90;;;;;;4917767;29;20461;-64
2022/04/19 16:31:08;;;;;;;2.90;2.70;;;20.10;46.20;;;;;;4917227;29;20996;-64
2022/04/19 16:33:37;;;;;;;3.27;3.07;;;20.00;46.40;;;;;;4917573;29;20481;-64
2022/04/19 16:36:06;;;;;;;4.83;3.20;;;19.90;44.70;;;;;;4917548;29;20461;-64
2022/04/19 16:38:33;;;;;;;3.10;2.40;;;19.90;46.30;;;;;;4917199;29;20457;-65
2022/04/19 16:41:00;;;;;;;2.70;2.50;;;19.80;45.70;;;;;;4917568;29;20519;-64
2022/04/19 16:43:27;;;;;;;2.50;2.40;;;19.70;46.10;;;;;;4917136;29;20934;-64
2022/04/19 16:45:53;;;;;;;2.87;2.67;;;19.70;47.70;;;;;;4917600;29;20467;-64
2022/04/19 16:48:20;;;;;;;5.87;2.53;;;19.60;46.70;;;;;;4917455;29;20453;-64
2022/04/19 16:50:47;;;;;;;3.00;2.80;;;19.50;47.20;;;;;;4917720;29;20488;-64
2022/04/19 16:53:15;;;;;;;2.90;2.70;;;19.40;46.40;;;;;;4917779;29;20481;-64
2022/04/19 16:55:42;;;;;;;4.40;3.13;;;19.40;47.00;;;;;;4917330;29;20949;-64
2022/04/19 16:58:09;;;;;;;3.20;2.87;;;19.30;47.50;;;;;;4917485;29;20465;-64
2022/04/19 17:00:36;;;;;;;4.00;3.60;;;19.30;47.20;;;;;;4917168;29;20488;-64
2022/04/19 17:05:47;;;;;;;3.80;2.60;;;19.10;47.50;;;;;;4917938;29;20469;-64
2022/04/19 17:08:15;;;;;;;2.50;2.40;;;19.10;47.30;;;;;;4917497;29;20496;-64
2022/04/19 17:10:42;;;;;;;5.13;2.13;;;19.00;47.80;;;;;;4917355;29;20484;-65
2022/04/19 17:13:09;;;;;;;2.47;2.27;;;19.00;48.30;;;;;;4917276;29;20493;-64
2022/04/19 17:15:37;;;;;;;2.63;2.53;;;19.00;48.00;;;;;;4917278;29;20464;-64
2022/04/19 17:18:04;;;;;;;3.20;2.27;;;18.90;47.40;;;;;;4917488;29;20497;-65
2022/04/19 17:20:30;;;;;;;5.00;2.70;;;18.80;48.00;;;;;;4917499;29;20461;-66
2022/04/19 17:22:57;;;;;;;3.00;2.70;;;18.70;48.40;;;;;;4917457;29;20907;-65
2022/04/19 17:25:25;;;;;;;2.43;2.33;;;18.70;48.90;;;;;;4917191;29;20965;-65
2022/04/19 17:27:52;;;;;;;3.00;2.80;;;18.60;48.30;;;;;;4917325;29;20468;-65
2022/04/19 17:30:19;;;;;;;3.07;2.20;;;18.60;48.40;;;;;;4920079;29;20824;-66
2022/04/19 17:32:46;;;;;;;3.03;2.50;;;18.50;48.20;;;;;;4920881;29;20556;-72
2022/04/19 17:35:14;;;;;;;2.40;2.20;;;18.50;48.20;;;;;;4921249;29;20551;-71
2022/04/19 17:37:40;;;;;;;2.93;2.20;;;18.40;48.60;;;;;;4920575;29;20461;-69
2022/04/19 17:40:08;;;;;;;3.90;2.40;;;18.30;48.50;;;;;;4921578;29;20857;-70
2022/04/19 17:42:36;;;;;;;2.87;2.60;;;18.20;48.10;;;;;;4920326;29;20477;-70
2022/04/19 17:45:04;;;;;;;2.13;2.03;;;18.20;48.70;;;;;;4920927;29;20469;-69
2022/04/19 17:47:30;;;;;;;2.87;2.67;;;18.10;49.70;;;;;;4920760;29;20468;-69
2022/04/19 17:58:12;;;;;;;5.30;5.00;;;17.80;50.20;;;;;;4929800;29;20822;-71
2022/04/19 18:00:39;;;;;;;4.53;4.13;;;17.80;51.20;;;;;;4924317;29;20500;-70